Festivo — EAEQ — position and weather

sailwx.info

Track history (hours):
 
Tides and Currents Weather Stations Pressure Air Temp Water Temp Dewpoint Dewpoint Depression Visibility Wind Speed Wind Dir Waves Ship Positions

Festivo

Last reported at 2017-Mar-25 17:11 UTC. Time now 2017-Mar-28 02:34 UTC.
Position N 35°52' W 005°01'.

Length 136 m; draft 4.5 m.

Type: Cargo ship. MMSI: 225410000.

Date/timePositionNaut miles runAvg speedWind from/ knotsBaromVisibWave heightAir tempDewpointWater temp
2017-Mar-25 17:11N 35°52' W 005°01'610.1
2017-Mar-25 16:33N 35°54' W 005°08'9 8.8
2017-Mar-25 15:34N 35°54' W 005°19'1 0.5
2017-Mar-25 14:33N 35°54' W 005°19'0 0.0
2017-Mar-25 13:33N 35°54' W 005°19'0 0.0
2017-Mar-25 12:33N 35°54' W 005°19'0 0.0
2017-Mar-25 11:33N 35°54' W 005°19'0 0.0
2017-Mar-25 10:33N 35°54' W 005°19'0 0.0
2017-Mar-25 09:33N 35°54' W 005°19'4 3.7
2017-Mar-25 08:33N 35°57' W 005°17'5 0.1
2017-Mar-23 14:28N 35°60' W 005°12'9 9.7
2017-Mar-23 13:33N 35°54' W 005°19'0 0.1
2017-Mar-23 12:34N 35°54' W 005°19'0 0.0
2017-Mar-23 11:33N 35°54' W 005°19'2 1.9
2017-Mar-23 10:33N 35°55' W 005°18'10 9.2
2017-Mar-23 09:29N 36°01' W 005°08'8 8.7
2017-Mar-23 08:34N 36°06' W 005°01'13 0.3
2017-Mar-21 10:33N 35°58' W 005°13'6 6.1
2017-Mar-21 09:30N 35°54' W 005°19'0 0.0
2017-Mar-21 08:33N 35°54' W 005°19'0 0.0
2017-Mar-21 07:15N 35°54' W 005°19'0 0.0
2017-Mar-21 06:33N 35°54' W 005°19'0 0.2
2017-Mar-21 05:33N 35°54' W 005°19'8 6.5
2017-Mar-21 04:16N 35°58' W 005°11'5 7.3
2017-Mar-21 03:32N 36°02' W 005°05'  
2017-Mar-18 23:25N 35°53' W 005°07'910.5
2017-Mar-18 22:34N 35°55' W 005°17'2 2.2
2017-Mar-18 21:32N 35°54' W 005°19'0 0.0
2017-Mar-18 20:32N 35°54' W 005°19'0 0.0
2017-Mar-18 19:32N 35°54' W 005°19'1 0.8
2017-Mar-18 18:33N 35°54' W 005°19'5 4.6
2017-Mar-18 17:33N 35°57' W 005°14'  
Track history (hours):
 
Tides and Currents Weather Stations Pressure Air Temp Water Temp Dewpoint Dewpoint Depression Visibility Wind Speed Wind Dir Waves Ship Positions

Festivo

Last reported at 2017-Mar-25 17:11 UTC. Time now 2017-Mar-28 02:34 UTC.
Position N 35°52' W 005°01'.

Length 136 m; draft 4.5 m.

Type: Cargo ship. MMSI: 225410000.

Date/timePositionNaut miles runAvg speedWind from/ knotsBaromVisibWave heightAir tempDewpointWater temp
2017-Mar-25 17:11N 35°52' W 005°01'610.1
2017-Mar-25 16:33N 35°54' W 005°08'9 8.8
2017-Mar-25 15:34N 35°54' W 005°19'1 0.5
2017-Mar-25 14:33N 35°54' W 005°19'0 0.0
2017-Mar-25 13:33N 35°54' W 005°19'0 0.0
2017-Mar-25 12:33N 35°54' W 005°19'0 0.0
2017-Mar-25 11:33N 35°54' W 005°19'0 0.0
2017-Mar-25 10:33N 35°54' W 005°19'0 0.0
2017-Mar-25 09:33N 35°54' W 005°19'4 3.7
2017-Mar-25 08:33N 35°57' W 005°17'5 0.1
2017-Mar-23 14:28N 35°60' W 005°12'9 9.7
2017-Mar-23 13:33N 35°54' W 005°19'0 0.1
2017-Mar-23 12:34N 35°54' W 005°19'0 0.0
2017-Mar-23 11:33N 35°54' W 005°19'2 1.9
2017-Mar-23 10:33N 35°55' W 005°18'10 9.2
2017-Mar-23 09:29N 36°01' W 005°08'8 8.7
2017-Mar-23 08:34N 36°06' W 005°01'13 0.3
2017-Mar-21 10:33N 35°58' W 005°13'6 6.1
2017-Mar-21 09:30N 35°54' W 005°19'0 0.0
2017-Mar-21 08:33N 35°54' W 005°19'0 0.0
2017-Mar-21 07:15N 35°54' W 005°19'0 0.0
2017-Mar-21 06:33N 35°54' W 005°19'0 0.2
2017-Mar-21 05:33N 35°54' W 005°19'8 6.5
2017-Mar-21 04:16N 35°58' W 005°11'5 7.3
2017-Mar-21 03:32N 36°02' W 005°05'  
2017-Mar-18 23:25N 35°53' W 005°07'910.5
2017-Mar-18 22:34N 35°55' W 005°17'2 2.2
2017-Mar-18 21:32N 35°54' W 005°19'0 0.0
2017-Mar-18 20:32N 35°54' W 005°19'0 0.0
2017-Mar-18 19:32N 35°54' W 005°19'1 0.8
2017-Mar-18 18:33N 35°54' W 005°19'5 4.6
2017-Mar-18 17:33N 35°57' W 005°14'  

Dump ship's entire track history